Hōlualoa, HI

12:36 AM HST on August 20, 2014 (GMT -1000)
Kona Palisades | Change Station
CLOSE
Current Station
Personal Weather Station
Location: Kailua-Kona, HI
Elevation: 1007 ft
Nearby Weather Stations

Elev 1007 ft 19.72 °N, 155.99 °W | Updated 6 minutes ago

Partly Cloudy
Partly Cloudy
71.8 °F
Feels Like 70 °F
N
1.0
Wind Variable Wind from East
Gusts 4.0 mph

Today
High -- | Low -- °F
--% Chance of Precip.
Yesterday
High -- | Low -- °F
Precip. -- in
6:05 AM 6:47 PM
Waning Crescent, 22% visible
Pressure 29.96 in
Visibility 10.0 miles
Clouds Few 6000 ft
Heat Index 70 °F
Dew Point 68 °F
Humidity 86%
Rainfall 0.00 in
Snow Depth Not available.
UV 0 out of 12
Pollen Not available.
Air Quality Not available.
Flu Activity Not available.
METAR PHKO 200953Z AUTO 02003KT 10SM FEW060 26/17 A2996 RMK AO2 SLP144 T02610172 403060222 TSNO $

More Conditions Fewer Conditions

Pressure 29.96 in
Visibility 10.0 miles
Clouds Few 6000 ft
Heat Index 70 °F
Dew Point 68 °F
Humidity 86%
Rainfall 0.00 in
Snow Depth Not available.
UV 0 out of 12
Pollen Not available.
Air Quality Not available.
Flu Activity Not available.
METAR PHKO 200953Z AUTO 02003KT 10SM FEW060 26/17 A2996 RMK AO2 SLP144 T02610172 403060222 TSNO $

More Conditions Fewer Conditions

10-Day Weather Forecast

Almanac

Astronomy

Aug. 20, 2014 Rise Set
Actual Time 6:05 AM HST 6:47 PM HST
Civil Twilight 5:42 AM HST 7:10 PM HST
Nautical Twilight 5:15 AM HST 7:37 PM HST
Astronomical Twilight 4:48 AM HST 8:03 PM HST
Moon 2:08 AM HST 3:27 PM HST
Length of Visible Light 13h 27m
Length of Day
12h 42m
Tomorrow will be 1m 0s shorter.
Waning Crescent, 22% of the Moon is Illuminated
Today
Waning Crescent
Aug 25
New
Sep 2
First Quarter
Sep 8
Full
Sep 15
Last Quarter

Today's Extremes

State Highs State Lows

Community

WunderPhotos

Upload Photos

1,745,604 photos uploaded!

Nearby

Snow Depth

Station Depth Elevation
No new snow has been reported.

Earthquake Activity

City Distance Mag. Time & Date
No recent earthquake activity has been reported nearby.
Minimum magnitude displayed is 2.5.

Coastal Water Temperatures

Place Temperature
No Stations Reporting

Nearby Weather Stations